createdAt,value
2018-05-06T00:01:27.080Z,9.70
2018-05-06T00:03:30.546Z,8.70
2018-05-06T00:05:34.014Z,8.60
2018-05-06T00:07:38.231Z,8.60
2018-05-06T00:09:41.679Z,9.10
2018-05-06T00:11:45.126Z,8.70
2018-05-06T00:13:48.617Z,9.80
2018-05-06T00:15:52.073Z,9.00
2018-05-06T00:17:55.566Z,8.90
2018-05-06T00:19:59.013Z,9.00
2018-05-06T00:22:02.455Z,10.10
2018-05-06T00:24:05.949Z,9.50
2018-05-06T00:26:09.384Z,9.90
2018-05-06T00:28:12.843Z,9.40
2018-05-06T00:30:16.266Z,9.40
2018-05-06T00:32:19.763Z,9.30
2018-05-06T00:34:23.945Z,9.50
2018-05-06T00:36:28.151Z,9.40
2018-05-06T00:38:31.596Z,9.30
2018-05-06T00:40:35.061Z,9.70
2018-05-06T00:42:38.537Z,9.40
2018-05-06T00:44:42.033Z,9.70
2018-05-06T00:46:46.244Z,10.20
2018-05-06T00:48:49.704Z,9.60
2018-05-06T00:50:53.134Z,9.80
2018-05-06T00:52:57.445Z,9.70
2018-05-06T00:55:00.883Z,10.00
2018-05-06T00:57:04.353Z,10.20
2018-05-06T00:59:07.834Z,10.30
2018-05-06T01:01:12.037Z,10.00
2018-05-06T01:03:15.487Z,9.90
2018-05-06T01:05:18.922Z,9.90
2018-05-06T01:07:22.370Z,10.00
2018-05-06T01:09:25.827Z,10.60
2018-05-06T01:11:30.025Z,10.20
2018-05-06T01:13:33.513Z,10.20
2018-05-06T01:15:37.153Z,10.30
2018-05-06T01:17:40.639Z,10.60
2018-05-06T01:19:44.065Z,11.00
2018-05-06T01:21:47.480Z,11.20
2018-05-06T01:23:50.963Z,11.20
2018-05-06T01:25:54.397Z,11.60
2018-05-06T01:27:58.625Z,11.40
2018-05-06T01:30:02.405Z,11.10
2018-05-06T01:32:05.858Z,11.90
2018-05-06T01:34:09.313Z,11.70
2018-05-06T01:36:12.768Z,12.00
2018-05-06T01:38:16.273Z,12.10
2018-05-06T01:40:19.699Z,12.30
2018-05-06T01:42:23.149Z,12.50
2018-05-06T01:44:26.604Z,12.70
2018-05-06T01:46:30.047Z,12.80
2018-05-06T01:48:33.575Z,13.70
2018-05-06T01:50:37.008Z,13.00
2018-05-06T01:52:40.429Z,13.70
2018-05-06T01:54:43.906Z,14.10
2018-05-06T01:56:47.351Z,14.20
2018-05-06T01:58:50.812Z,14.20
2018-05-06T02:00:54.307Z,14.40
2018-05-06T02:02:57.739Z,15.10
2018-05-06T02:05:01.192Z,15.00
2018-05-06T02:07:05.560Z,15.50
2018-05-06T02:09:09.091Z,15.60
2018-05-06T02:11:13.351Z,15.70
2018-05-06T02:13:16.808Z,15.60
2018-05-06T02:15:21.020Z,15.80
2018-05-06T02:17:24.460Z,16.10
2018-05-06T02:19:27.921Z,15.90
2018-05-06T02:21:32.133Z,16.00
2018-05-06T02:23:36.356Z,16.40
2018-05-06T02:25:40.553Z,16.50
2018-05-06T02:27:44.751Z,16.90
2018-05-06T02:29:48.232Z,17.10
2018-05-06T02:31:51.686Z,16.40
2018-05-06T02:33:55.145Z,17.10
2018-05-06T02:35:58.578Z,17.20
2018-05-06T02:38:02.056Z,17.30
2018-05-06T02:40:05.518Z,17.20
2018-05-06T02:42:08.957Z,17.10
2018-05-06T02:44:12.437Z,17.90
2018-05-06T02:46:15.912Z,18.20
2018-05-06T02:48:20.221Z,17.60
2018-05-06T02:50:23.643Z,16.90
2018-05-06T02:52:27.077Z,18.10
2018-05-06T02:54:30.527Z,18.00
2018-05-06T02:56:33.975Z,18.70
2018-05-06T02:58:37.490Z,18.90
2018-05-06T03:00:40.920Z,18.70
2018-05-06T03:02:44.385Z,19.50
2018-05-06T03:04:47.872Z,18.70
2018-05-06T03:06:51.310Z,19.50
2018-05-06T03:08:54.784Z,19.20
2018-05-06T03:11:02.359Z,20.00
2018-05-06T03:13:06.485Z,20.30
2018-05-06T03:15:10.750Z,19.50
2018-05-06T03:17:14.205Z,19.80
2018-05-06T03:19:17.672Z,19.70
2018-05-06T03:21:21.130Z,20.10
2018-05-06T03:23:24.592Z,19.90
2018-05-06T03:25:28.046Z,20.30
2018-05-06T03:27:32.236Z,21.00
2018-05-06T03:29:35.723Z,21.00
2018-05-06T03:31:39.157Z,21.00
2018-05-06T03:33:43.374Z,21.60
2018-05-06T03:35:46.825Z,21.60
2018-05-06T03:37:50.262Z,22.20
2018-05-06T03:39:53.753Z,21.60
2018-05-06T03:41:57.261Z,22.30
2018-05-06T03:44:01.349Z,22.50
2018-05-06T03:46:05.580Z,23.10
2018-05-06T03:48:09.045Z,23.10
2018-05-06T03:50:12.514Z,23.10
2018-05-06T03:52:15.958Z,22.60
2018-05-06T03:54:19.418Z,24.20
2018-05-06T03:59:21.914Z,24.00
2018-05-06T04:01:25.349Z,23.90
2018-05-06T04:03:28.817Z,24.00
2018-05-06T04:05:32.307Z,24.60
2018-05-06T04:07:36.516Z,24.80
2018-05-06T04:09:40.758Z,25.30
2018-05-06T04:11:44.221Z,25.10
2018-05-06T04:13:49.600Z,25.80
2018-05-06T04:15:53.049Z,25.70
2018-05-06T04:17:57.265Z,26.20
2018-05-06T04:20:00.854Z,26.30
2018-05-06T04:22:04.297Z,26.60
2018-05-06T04:24:07.774Z,26.70
2018-05-06T04:26:11.214Z,26.80
2018-05-06T04:28:14.639Z,27.30
2018-05-06T04:30:18.109Z,27.60
2018-05-06T04:32:21.551Z,27.50
2018-05-06T04:34:25.022Z,28.00
2018-05-06T04:36:29.256Z,28.50
2018-05-06T04:38:32.675Z,28.70
2018-05-06T04:40:36.164Z,28.70
2018-05-06T04:42:39.614Z,28.20
2018-05-06T04:44:43.838Z,29.70
2018-05-06T04:46:48.043Z,29.80
2018-05-06T04:48:52.226Z,29.40
2018-05-06T04:50:56.480Z,28.90
2018-05-06T04:52:59.912Z,28.80
2018-05-06T04:55:03.380Z,29.60
2018-05-06T04:57:06.805Z,29.70
2018-05-06T04:59:10.260Z,30.00
2018-05-06T05:01:13.688Z,30.00
2018-05-06T05:03:17.143Z,30.10
2018-05-06T05:05:20.630Z,30.90
2018-05-06T05:07:24.833Z,31.50
2018-05-06T05:09:29.141Z,31.40
2018-05-06T05:11:33.170Z,31.30
2018-05-06T05:13:36.604Z,31.60
2018-05-06T05:15:40.067Z,31.40
2018-05-06T05:17:43.498Z,31.90
2018-05-06T05:19:46.996Z,31.50
2018-05-06T05:21:50.438Z,31.20
2018-05-06T05:23:53.876Z,31.40
2018-05-06T05:25:57.341Z,29.80
2018-05-06T05:28:00.776Z,30.00
2018-05-06T05:30:04.235Z,29.00
2018-05-06T05:32:07.670Z,28.90
2018-05-06T05:34:11.096Z,27.60
2018-05-06T05:36:15.328Z,27.50
2018-05-06T05:38:18.754Z,27.50
2018-05-06T05:40:22.228Z,28.80
2018-05-06T05:42:25.678Z,33.20
2018-05-06T05:44:29.913Z,30.90
2018-05-06T05:46:33.374Z,31.10
2018-05-06T05:48:37.569Z,31.70
2018-05-06T05:50:41.040Z,29.50
2018-05-06T05:52:44.480Z,26.50
2018-05-06T05:54:48.696Z,27.20
2018-05-06T05:56:52.903Z,21.00
2018-05-06T05:58:57.139Z,22.20
2018-05-06T06:01:00.620Z,22.40
2018-05-06T06:03:04.821Z,22.30
2018-05-06T06:05:09.178Z,20.40
2018-05-06T06:07:12.789Z,20.00
2018-05-06T06:09:16.232Z,20.00
2018-05-06T06:11:20.509Z,19.00
2018-05-06T06:13:24.019Z,19.50
2018-05-06T06:15:27.530Z,19.00
2018-05-06T06:17:31.027Z,18.00
2018-05-06T06:19:35.376Z,16.50
2018-05-06T06:21:38.844Z,16.50
2018-05-06T06:23:43.063Z,13.50
2018-05-06T06:25:46.539Z,13.40
2018-05-06T06:27:50.030Z,14.40
2018-05-06T06:29:54.265Z,13.20
2018-05-06T06:31:57.787Z,13.70
2018-05-06T06:34:01.256Z,13.10
2018-05-06T06:36:04.746Z,12.00
2018-05-06T06:38:08.949Z,10.60
2018-05-06T06:40:12.434Z,10.90
2018-05-06T06:42:15.880Z,9.50
2018-05-06T06:44:21.293Z,8.20
2018-05-06T06:46:24.766Z,10.40
2018-05-06T06:48:29.000Z,10.70
2018-05-06T06:50:32.463Z,10.60
2018-05-06T06:52:36.675Z,9.60
2018-05-06T06:54:40.885Z,9.00
2018-05-06T06:56:46.393Z,8.80
2018-05-06T06:58:49.916Z,8.40
2018-05-06T07:00:53.480Z,8.50
2018-05-06T07:02:56.931Z,6.10
2018-05-06T07:05:00.420Z,5.70
2018-05-06T07:07:03.957Z,7.20
2018-05-06T07:09:07.405Z,6.20
2018-05-06T07:11:11.745Z,5.10
2018-05-06T07:13:15.917Z,6.40
2018-05-06T07:15:20.588Z,6.50
2018-05-06T07:17:24.034Z,4.30
2018-05-06T07:19:28.274Z,4.10
2018-05-06T07:21:31.775Z,4.10
2018-05-06T07:23:35.232Z,2.80
2018-05-06T07:25:38.685Z,1.00
2018-05-06T07:27:42.514Z,3.20
2018-05-06T07:29:45.927Z,1.00
2018-05-06T07:31:49.440Z,2.00
2018-05-06T07:33:53.642Z,2.70
2018-05-06T07:35:57.283Z,2.80
2018-05-06T07:38:00.663Z,4.20
2018-05-06T07:40:05.286Z,1.70
2018-05-06T07:42:08.849Z,1.00
2018-05-06T07:44:12.358Z,1.00
2018-05-06T07:46:15.903Z,1.00
2018-05-06T07:48:19.385Z,1.00
2018-05-06T07:50:22.844Z,1.00
2018-05-06T07:52:26.317Z,1.00
2018-05-06T07:54:29.755Z,1.00
2018-05-06T07:56:33.223Z,1.00
2018-05-06T07:58:37.428Z,1.00
2018-05-06T08:00:41.826Z,1.00
2018-05-06T08:02:46.053Z,1.00
2018-05-06T08:04:49.785Z,1.00
2018-05-06T08:06:54.446Z,1.00
2018-05-06T08:08:57.880Z,1.00
2018-05-06T08:11:02.747Z,1.00
2018-05-06T08:13:06.273Z,1.00
2018-05-06T08:15:09.756Z,1.00
2018-05-06T08:17:13.323Z,1.00
2018-05-06T08:19:16.786Z,1.00
2018-05-06T08:21:20.249Z,1.00
2018-05-06T08:23:23.697Z,1.00
2018-05-06T08:25:27.137Z,1.00
2018-05-06T08:27:31.243Z,1.00
2018-05-06T08:29:34.720Z,1.00
2018-05-06T08:31:38.267Z,1.00
2018-05-06T08:33:42.483Z,1.00
2018-05-06T08:35:45.980Z,1.00
2018-05-06T08:37:49.472Z,1.00
2018-05-06T08:39:53.701Z,1.00
2018-05-06T08:41:57.150Z,1.00
2018-05-06T08:44:00.761Z,1.00
2018-05-06T08:46:04.232Z,1.00
2018-05-06T08:48:07.716Z,1.00
2018-05-06T08:50:11.547Z,1.00
2018-05-06T08:52:15.010Z,1.00
2018-05-06T08:54:18.560Z,1.00
2018-05-06T08:56:22.026Z,1.00
2018-05-06T08:58:25.474Z,1.00
2018-05-06T09:00:28.909Z,1.00
2018-05-06T09:02:32.423Z,1.00
2018-05-06T09:04:36.610Z,1.00
2018-05-06T09:06:40.859Z,1.00
2018-05-06T09:08:45.093Z,1.00
2018-05-06T09:10:48.537Z,1.00
2018-05-06T09:12:52.795Z,1.00
2018-05-06T09:14:56.228Z,1.00
2018-05-06T09:16:59.725Z,1.00
2018-05-06T09:19:03.217Z,1.00
2018-05-06T09:21:06.678Z,1.00
2018-05-06T09:23:10.211Z,1.00
2018-05-06T09:25:13.658Z,1.00
2018-05-06T09:27:17.924Z,1.00
2018-05-06T09:29:21.379Z,1.00
2018-05-06T09:31:24.847Z,1.00
2018-05-06T09:33:29.051Z,1.00
2018-05-06T09:35:33.345Z,1.00
2018-05-06T09:37:36.844Z,1.00
2018-05-06T09:39:40.288Z,1.00
2018-05-06T09:41:43.739Z,1.00
2018-05-06T09:43:47.952Z,1.00
2018-05-06T09:45:52.178Z,1.00
2018-05-06T09:47:55.729Z,1.00
2018-05-06T09:49:59.145Z,1.00
2018-05-06T09:52:03.420Z,1.00
2018-05-06T09:54:06.910Z,1.00
2018-05-06T09:56:10.373Z,1.00
2018-05-06T09:58:13.821Z,1.00
2018-05-06T10:00:17.261Z,1.00
2018-05-06T10:02:20.748Z,1.00
2018-05-06T10:04:24.189Z,1.00
2018-05-06T10:06:27.669Z,1.00
2018-05-06T10:08:31.130Z,1.00
2018-05-06T10:10:34.617Z,1.00
2018-05-06T10:12:38.883Z,1.00
2018-05-06T10:14:42.326Z,1.00
2018-05-06T10:16:45.884Z,1.00
2018-05-06T10:18:49.330Z,1.00
2018-05-06T10:20:52.798Z,1.00
2018-05-06T10:22:57.023Z,1.00
2018-05-06T10:25:00.471Z,1.00
2018-05-06T10:27:03.968Z,1.00
2018-05-06T10:29:07.417Z,1.00
2018-05-06T10:31:10.869Z,1.00
2018-05-06T10:33:14.353Z,1.00
2018-05-06T10:35:17.805Z,1.00
2018-05-06T10:37:21.263Z,1.00
2018-05-06T10:39:24.905Z,1.00
2018-05-06T10:41:28.347Z,1.00
2018-05-06T10:43:31.797Z,1.00
2018-05-06T10:45:35.296Z,1.00
2018-05-06T10:47:38.858Z,1.00
2018-05-06T10:49:42.355Z,1.00
2018-05-06T10:51:46.537Z,1.00
2018-05-06T10:53:50.032Z,1.00
2018-05-06T10:55:53.461Z,1.00
2018-05-06T10:57:57.677Z,1.00
2018-05-06T11:00:01.133Z,1.00
2018-05-06T11:02:04.673Z,1.00
2018-05-06T11:04:08.197Z,1.00
2018-05-06T11:06:11.672Z,1.00
2018-05-06T11:08:15.126Z,1.00
2018-05-06T11:10:18.660Z,1.00
2018-05-06T11:12:22.064Z,1.00
2018-05-06T11:14:25.523Z,1.00
2018-05-06T11:16:28.955Z,1.00
2018-05-06T11:18:32.429Z,1.00
2018-05-06T11:20:35.888Z,1.00
2018-05-06T11:22:39.992Z,1.00
2018-05-06T11:24:44.208Z,1.00
2018-05-06T11:26:48.517Z,1.00
2018-05-06T11:28:52.041Z,1.00
2018-05-06T11:30:56.233Z,1.00
2018-05-06T11:33:00.477Z,1.00
2018-05-06T11:35:03.937Z,1.00
2018-05-06T11:37:08.200Z,1.00
2018-05-06T11:39:11.700Z,1.00
2018-05-06T11:41:15.200Z,1.00
2018-05-06T11:43:18.698Z,1.00
2018-05-06T11:45:22.135Z,1.00
2018-05-06T11:47:27.522Z,1.00
2018-05-06T11:49:31.012Z,1.00
2018-05-06T11:51:34.429Z,1.00
2018-05-06T11:53:37.923Z,1.00
2018-05-06T11:55:41.355Z,1.00
2018-05-06T11:57:44.982Z,1.00
2018-05-06T11:59:48.447Z,1.00
2018-05-06T12:01:52.764Z,1.00
2018-05-06T12:03:56.983Z,1.00
2018-05-06T12:06:00.409Z,1.00
2018-05-06T12:08:03.836Z,1.00
2018-05-06T12:10:07.310Z,1.00
2018-05-06T12:12:11.586Z,1.00
2018-05-06T12:14:15.066Z,1.00
2018-05-06T12:16:18.497Z,1.00
2018-05-06T12:18:22.776Z,1.00
2018-05-06T12:20:26.975Z,1.00
2018-05-06T12:22:31.167Z,1.00
2018-05-06T12:24:34.641Z,1.00
2018-05-06T12:26:38.061Z,1.00
2018-05-06T12:28:41.526Z,1.00
2018-05-06T12:30:44.945Z,1.00
2018-05-06T12:32:48.387Z,1.00
2018-05-06T12:34:51.873Z,1.00
2018-05-06T12:36:55.301Z,1.00
2018-05-06T12:38:58.777Z,1.00
2018-05-06T12:41:02.207Z,1.00
2018-05-06T12:43:05.650Z,1.00
2018-05-06T12:45:09.144Z,1.00
2018-05-06T12:47:12.694Z,1.00
2018-05-06T12:49:16.952Z,1.00
2018-05-06T12:51:20.449Z,1.00
2018-05-06T12:53:23.893Z,1.00
2018-05-06T12:55:28.154Z,1.00
2018-05-06T12:57:31.626Z,1.00
2018-05-06T12:59:35.867Z,1.00
2018-05-06T13:01:39.346Z,1.00
2018-05-06T13:03:42.964Z,1.00
2018-05-06T13:05:47.901Z,1.00
2018-05-06T13:07:52.374Z,1.00
2018-05-06T13:09:56.040Z,1.00
2018-05-06T13:12:00.385Z,1.00
2018-05-06T13:14:04.623Z,1.00
2018-05-06T13:16:08.178Z,1.00
2018-05-06T13:18:11.706Z,1.00
2018-05-06T13:20:15.991Z,1.00
2018-05-06T13:22:19.438Z,1.00
2018-05-06T13:24:23.701Z,1.00
2018-05-06T13:26:27.900Z,1.00
2018-05-06T13:28:31.318Z,1.00
2018-05-06T13:30:34.805Z,1.00
2018-05-06T13:32:39.129Z,1.00
2018-05-06T13:34:43.345Z,1.00
2018-05-06T13:36:46.789Z,1.00
2018-05-06T13:38:50.238Z,1.00
2018-05-06T13:40:53.702Z,1.00
2018-05-06T13:42:57.124Z,1.00
2018-05-06T13:45:00.600Z,1.00
2018-05-06T13:47:04.780Z,1.00
2018-05-06T13:49:08.229Z,1.00
2018-05-06T13:51:11.644Z,1.00
2018-05-06T13:53:15.091Z,1.00
2018-05-06T13:55:19.317Z,1.00
2018-05-06T13:57:22.759Z,1.00
2018-05-06T13:59:26.220Z,1.00
2018-05-06T14:01:29.686Z,1.00
2018-05-06T14:03:33.158Z,1.00
2018-05-06T14:05:36.607Z,1.00
2018-05-06T14:07:40.140Z,1.00
2018-05-06T14:09:43.622Z,1.00
2018-05-06T14:11:47.052Z,1.00
2018-05-06T14:13:51.342Z,1.00
2018-05-06T14:15:54.899Z,1.00
2018-05-06T14:17:59.062Z,1.00
2018-05-06T14:20:02.533Z,1.00
2018-05-06T14:22:06.057Z,1.00
2018-05-06T14:24:10.294Z,1.00
2018-05-06T14:26:14.573Z,1.00
2018-05-06T14:28:18.847Z,1.00
2018-05-06T14:30:22.438Z,1.00
2018-05-06T14:32:25.991Z,1.00
2018-05-06T14:34:29.433Z,1.00
2018-05-06T14:36:32.934Z,1.00
2018-05-06T14:38:36.368Z,1.00
2018-05-06T14:40:40.495Z,1.00
2018-05-06T14:42:44.687Z,1.00
2018-05-06T14:44:48.165Z,1.00
2018-05-06T14:47:04.072Z,1.00
2018-05-06T14:49:07.510Z,1.00
2018-05-06T14:51:10.995Z,1.00
2018-05-06T14:53:14.664Z,1.00
2018-05-06T14:55:18.898Z,1.00
2018-05-06T14:57:22.424Z,1.00
2018-05-06T14:59:26.784Z,1.00
2018-05-06T15:01:30.801Z,1.00
2018-05-06T15:03:34.275Z,1.00
2018-05-06T15:05:38.594Z,1.00
2018-05-06T15:07:42.058Z,1.00
2018-05-06T15:09:45.481Z,1.00
2018-05-06T15:11:49.741Z,1.00
2018-05-06T15:13:53.275Z,1.00
2018-05-06T15:15:56.780Z,1.00
2018-05-06T15:18:00.238Z,1.00
2018-05-06T15:20:04.360Z,1.00
2018-05-06T15:22:07.894Z,1.00
2018-05-06T15:24:11.334Z,1.00
2018-05-06T15:26:14.794Z,1.00
2018-05-06T15:28:18.990Z,1.00
2018-05-06T15:30:22.471Z,1.00
2018-05-06T15:32:25.902Z,1.00
2018-05-06T15:34:29.330Z,1.00
2018-05-06T15:36:32.918Z,1.00
2018-05-06T15:38:37.246Z,1.00
2018-05-06T15:40:40.724Z,1.00
2018-05-06T15:42:44.849Z,1.00
2018-05-06T15:44:48.596Z,1.00
2018-05-06T15:46:52.129Z,1.00
2018-05-06T15:48:55.963Z,1.00
2018-05-06T15:51:00.252Z,1.00
2018-05-06T15:53:03.999Z,1.00
2018-05-06T15:55:08.370Z,1.00
2018-05-06T15:57:11.869Z,1.00
2018-05-06T15:59:16.748Z,1.00
2018-05-06T16:01:20.376Z,1.00
2018-05-06T16:03:35.848Z,1.00
2018-05-06T16:05:39.435Z,1.00
2018-05-06T16:07:42.942Z,1.00
2018-05-06T16:09:46.590Z,1.00
2018-05-06T16:11:50.840Z,1.00
2018-05-06T16:13:54.395Z,1.00
2018-05-06T16:15:57.889Z,1.00
2018-05-06T16:18:01.952Z,1.00
2018-05-06T16:20:05.406Z,1.00
2018-05-06T16:22:08.937Z,1.00
2018-05-06T16:24:13.784Z,1.00
2018-05-06T16:26:17.796Z,1.00
2018-05-06T16:28:21.575Z,1.00
2018-05-06T16:30:25.162Z,1.00
2018-05-06T16:32:29.656Z,1.00
2018-05-06T16:34:33.473Z,1.00
2018-05-06T16:36:39.042Z,1.00
2018-05-06T16:38:43.355Z,1.00
2018-05-06T16:40:46.893Z,1.00
2018-05-06T16:42:50.349Z,1.00
2018-05-06T16:44:53.780Z,1.00
2018-05-06T16:47:00.037Z,1.00
2018-05-06T16:49:03.578Z,1.00
2018-05-06T16:51:07.050Z,1.00
2018-05-06T16:53:11.266Z,1.00
2018-05-06T16:55:15.554Z,1.00
2018-05-06T16:57:19.279Z,1.00
2018-05-06T16:59:22.683Z,1.00
2018-05-06T17:01:26.924Z,1.00
2018-05-06T17:03:30.630Z,1.00
2018-05-06T17:05:34.070Z,1.00
2018-05-06T17:07:38.302Z,1.00
2018-05-06T17:09:41.728Z,1.00
2018-05-06T17:11:46.117Z,1.00
2018-05-06T17:13:49.559Z,1.00
2018-05-06T17:15:53.363Z,1.00
2018-05-06T17:17:57.041Z,1.00
2018-05-06T17:20:12.044Z,1.00
2018-05-06T17:22:16.278Z,1.00
2018-05-06T17:24:21.395Z,1.00
2018-05-06T17:26:25.814Z,1.00
2018-05-06T17:28:30.058Z,1.00
2018-05-06T17:30:33.593Z,1.00
2018-05-06T17:32:37.268Z,1.00
2018-05-06T17:34:40.725Z,1.00
2018-05-06T17:36:44.794Z,1.00
2018-05-06T17:38:48.292Z,1.00
2018-05-06T17:40:51.801Z,1.00
2018-05-06T17:42:55.277Z,1.00
2018-05-06T17:44:58.722Z,1.00
2018-05-06T17:47:02.201Z,1.00
2018-05-06T17:49:05.664Z,1.00
2018-05-06T17:51:09.159Z,1.00
2018-05-06T17:53:12.662Z,1.00
2018-05-06T17:55:16.096Z,1.00
2018-05-06T17:57:19.580Z,1.00
2018-05-06T17:59:23.070Z,1.00
2018-05-06T18:01:26.537Z,1.00
2018-05-06T18:03:30.767Z,1.00
2018-05-06T18:05:34.246Z,1.00
2018-05-06T18:07:38.449Z,1.00
2018-05-06T18:09:41.833Z,1.00
2018-05-06T18:11:45.341Z,1.00
2018-05-06T18:13:48.785Z,1.00
2018-05-06T18:15:52.279Z,1.00
2018-05-06T18:17:55.802Z,1.00
2018-05-06T18:19:59.429Z,1.00
2018-05-06T18:22:02.932Z,1.00
2018-05-06T18:24:07.137Z,1.00
2018-05-06T18:26:11.387Z,1.00
2018-05-06T18:28:14.865Z,1.00
2018-05-06T18:30:19.380Z,1.00
2018-05-06T18:32:23.003Z,1.00
2018-05-06T18:34:27.583Z,1.00
2018-05-06T18:36:31.195Z,1.00
2018-05-06T18:38:35.326Z,1.00
2018-05-06T18:40:38.893Z,1.00
2018-05-06T18:42:44.091Z,1.00
2018-05-06T18:44:47.655Z,1.00
2018-05-06T18:46:51.883Z,1.00
2018-05-06T18:48:55.478Z,1.00
2018-05-06T18:50:59.716Z,1.00
2018-05-06T18:53:03.841Z,1.00
2018-05-06T18:55:09.577Z,1.00
2018-05-06T18:57:13.650Z,1.00
2018-05-06T18:59:17.959Z,1.00
2018-05-06T19:01:21.542Z,1.00
2018-05-06T19:03:25.027Z,1.00
2018-05-06T19:05:28.797Z,1.00
2018-05-06T19:07:32.271Z,1.00
2018-05-06T19:09:36.516Z,1.00
2018-05-06T19:11:42.064Z,1.00
2018-05-06T19:13:46.097Z,1.00
2018-05-06T19:15:49.929Z,1.00
2018-05-06T19:17:54.292Z,1.00
2018-05-06T19:19:57.861Z,1.00
2018-05-06T19:22:01.407Z,1.00
2018-05-06T19:24:05.560Z,1.00
2018-05-06T19:26:09.119Z,1.00
2018-05-06T19:28:12.719Z,1.00
2018-05-06T19:30:16.439Z,1.00
2018-05-06T19:32:20.072Z,1.00
2018-05-06T19:34:23.643Z,1.00
2018-05-06T19:36:28.123Z,1.00
2018-05-06T19:38:33.106Z,1.00
2018-05-06T19:40:39.612Z,1.00
2018-05-06T19:42:44.552Z,1.00
2018-05-06T19:44:48.560Z,1.00
2018-05-06T19:46:52.358Z,1.00
2018-05-06T19:48:56.884Z,1.00
2018-05-06T19:51:00.907Z,1.00
2018-05-06T19:53:04.472Z,1.00
2018-05-06T19:55:08.705Z,1.00
2018-05-06T19:57:12.931Z,1.00
2018-05-06T19:59:16.402Z,1.00
2018-05-06T20:01:19.840Z,1.00
2018-05-06T20:03:23.384Z,1.00
2018-05-06T20:05:26.956Z,1.00
2018-05-06T20:07:30.581Z,1.00
2018-05-06T20:09:33.957Z,1.00
2018-05-06T20:11:37.388Z,1.00
2018-05-06T20:13:41.893Z,1.00
2018-05-06T20:15:47.728Z,1.00
2018-05-06T20:17:51.227Z,1.00
2018-05-06T20:19:54.670Z,1.00
2018-05-06T20:21:58.145Z,1.00
2018-05-06T20:24:01.622Z,1.00
2018-05-06T20:26:05.039Z,1.00
2018-05-06T20:28:08.509Z,1.00
2018-05-06T20:30:11.918Z,1.00
2018-05-06T20:32:15.365Z,1.00
2018-05-06T20:34:18.809Z,1.00
2018-05-06T20:36:22.236Z,1.00
2018-05-06T20:38:25.749Z,1.00
2018-05-06T20:40:29.161Z,1.00
2018-05-06T20:42:32.619Z,1.00
2018-05-06T20:44:36.049Z,1.00
2018-05-06T20:46:39.473Z,1.10
2018-05-06T20:48:42.940Z,1.00
2018-05-06T20:50:46.375Z,1.00
2018-05-06T20:52:49.829Z,1.00
2018-05-06T20:54:53.255Z,1.00
2018-05-06T20:56:56.704Z,1.00
2018-05-06T20:59:00.919Z,1.20
2018-05-06T21:01:05.664Z,1.10
2018-05-06T21:03:09.139Z,1.40
2018-05-06T21:05:12.678Z,2.10
2018-05-06T21:07:16.223Z,2.20
2018-05-06T21:09:19.672Z,2.00
2018-05-06T21:11:23.115Z,2.30
2018-05-06T21:13:26.594Z,2.20
2018-05-06T21:15:30.806Z,2.50
2018-05-06T21:17:35.032Z,2.70
2018-05-06T21:19:38.914Z,2.60
2018-05-06T21:21:43.768Z,2.90
2018-05-06T21:23:48.655Z,3.30
2018-05-06T21:25:53.372Z,3.50
2018-05-06T21:27:56.885Z,3.50
2018-05-06T21:30:01.128Z,3.40
2018-05-06T21:32:04.633Z,3.30
2018-05-06T21:34:08.077Z,3.60
2018-05-06T21:36:11.534Z,3.90
2018-05-06T21:38:15.065Z,4.50
2018-05-06T21:40:18.511Z,4.60
2018-05-06T21:42:21.964Z,5.10
2018-05-06T21:44:25.409Z,4.80
2018-05-06T21:46:29.681Z,5.00
2018-05-06T21:48:33.920Z,5.20
2018-05-06T21:50:37.384Z,5.00
2018-05-06T21:52:41.598Z,5.30
2018-05-06T21:54:45.807Z,5.30
2018-05-06T21:56:51.438Z,5.50
2018-05-06T21:58:54.892Z,5.50
2018-05-06T22:00:59.301Z,5.40
2018-05-06T22:03:02.803Z,5.40
2018-05-06T22:05:06.237Z,5.30
2018-05-06T22:07:09.690Z,5.60
2018-05-06T22:09:13.179Z,5.60
2018-05-06T22:11:16.641Z,5.90
2018-05-06T22:13:20.874Z,6.40
2018-05-06T22:15:24.296Z,6.50
2018-05-06T22:17:27.795Z,6.20
2018-05-06T22:19:31.228Z,6.50
2018-05-06T22:21:35.462Z,7.00
2018-05-06T22:23:38.937Z,7.00
2018-05-06T22:25:43.165Z,7.20
2018-05-06T22:27:46.640Z,7.30
2018-05-06T22:29:50.848Z,7.30
2018-05-06T22:31:54.332Z,7.40
2018-05-06T22:33:58.640Z,7.40
2018-05-06T22:36:02.064Z,7.00
2018-05-06T22:38:06.302Z,7.60
2018-05-06T22:40:09.732Z,7.60
2018-05-06T22:42:13.163Z,7.70
2018-05-06T22:44:16.640Z,7.80
2018-05-06T22:46:20.086Z,8.00
2018-05-06T22:48:24.303Z,8.30
2018-05-06T22:50:27.755Z,8.10
2018-05-06T22:52:32.010Z,8.10
2018-05-06T22:54:35.440Z,8.10
2018-05-06T22:56:39.636Z,8.40
2018-05-06T22:58:43.092Z,8.50
2018-05-06T23:00:46.533Z,8.20
2018-05-06T23:02:49.997Z,8.50
2018-05-06T23:04:53.449Z,8.60
2018-05-06T23:06:57.637Z,8.60
2018-05-06T23:09:01.138Z,8.60
2018-05-06T23:11:04.609Z,8.30
2018-05-06T23:13:08.876Z,8.90
2018-05-06T23:15:12.379Z,8.70
2018-05-06T23:17:16.546Z,9.10
2018-05-06T23:19:20.015Z,9.00
2018-05-06T23:21:23.457Z,9.10
2018-05-06T23:23:26.922Z,9.00
2018-05-06T23:25:30.387Z,9.10
2018-05-06T23:27:33.855Z,9.10
2018-05-06T23:29:37.305Z,9.40
2018-05-06T23:31:41.520Z,9.60
2018-05-06T23:33:45.055Z,9.50
2018-05-06T23:35:48.492Z,9.20
2018-05-06T23:37:52.772Z,9.70
2018-05-06T23:39:56.207Z,9.10
2018-05-06T23:41:59.631Z,9.30
2018-05-06T23:44:03.859Z,9.40
2018-05-06T23:46:07.299Z,9.40
2018-05-06T23:48:10.761Z,9.80
2018-05-06T23:50:14.207Z,9.50
2018-05-06T23:52:17.647Z,9.40
2018-05-06T23:54:21.133Z,9.50
2018-05-06T23:56:25.280Z,9.50
2018-05-06T23:58:29.684Z,9.60
